Time;durP1;ratioP1;P1;durP2;ratioP2;P2;SDS_P1;SDS_P2;PMS_P1;PMS_P2;Temp;Humidity;BMP_temperature;BMP_pressure;BME280_temperature;BME280_humidity;BME280_pressure;Samples;Min_cycle;Max_cycle;Signal;HPM_P1;HPM_P2
2023/05/26 00:01:18;;;;;;;8.45;3.75;;;20.70;59.50;;;;;;6240768;28;20037;-70
2023/05/26 00:04:25;;;;;;;8.50;3.60;;;20.70;59.60;;;;;;6239254;28;20112;-71
2023/05/26 00:07:32;;;;;;;5.13;2.88;;;20.70;59.70;;;;;;6240425;28;20038;-71
2023/05/26 00:10:42;;;;;;;5.97;3.60;;;20.50;59.90;;;;;;6240355;28;20030;-71
2023/05/26 00:13:48;;;;;;;6.32;3.42;;;20.60;60.20;;;;;;6222250;28;20025;-70
2023/05/26 00:16:59;;;;;;;9.40;4.00;;;20.60;60.50;;;;;;6220577;28;20524;-70
2023/05/26 00:20:12;;;;;;;6.95;3.78;;;20.50;60.70;;;;;;6240722;28;20036;-71
2023/05/26 00:23:21;;;;;;;6.85;3.50;;;20.50;60.80;;;;;;6222402;28;20071;-71
2023/05/26 00:26:27;;;;;;;10.13;3.78;;;20.40;61.00;;;;;;6212641;28;20052;-70
2023/05/26 00:29:37;;;;;;;4.95;3.03;;;20.40;61.10;;;;;;6215224;28;20029;-71
2023/05/26 00:32:45;;;;;;;6.68;3.53;;;20.40;61.30;;;;;;6222475;28;20033;-70
2023/05/26 00:35:54;;;;;;;8.05;3.60;;;20.40;61.40;;;;;;6239834;28;20029;-70
2023/05/26 00:39:05;;;;;;;6.38;3.40;;;20.30;61.30;;;;;;6239303;28;20026;-71
2023/05/26 00:42:17;;;;;;;5.75;3.67;;;20.30;61.30;;;;;;6239703;28;20103;-71
2023/05/26 00:45:24;;;;;;;11.65;3.70;;;20.30;61.40;;;;;;6221989;28;20029;-71
2023/05/26 00:48:29;;;;;;;5.55;3.30;;;20.30;61.30;;;;;;6236726;28;20123;-71
2023/05/26 00:51:39;;;;;;;6.97;3.50;;;20.30;61.30;;;;;;6239854;28;20036;-71
2023/05/26 00:54:47;;;;;;;7.22;4.03;;;20.30;61.20;;;;;;6222098;28;20037;-71
2023/05/26 00:57:55;;;;;;;6.85;3.13;;;20.30;61.20;;;;;;6219795;28;20024;-71
2023/05/26 01:01:03;;;;;;;7.15;3.70;;;20.30;61.20;;;;;;6239922;28;20045;-70
2023/05/26 01:04:08;;;;;;;8.23;3.70;;;20.20;61.20;;;;;;6222055;28;20087;-70
2023/05/26 01:07:17;;;;;;;7.18;3.80;;;20.20;61.20;;;;;;6239354;28;20032;-71
2023/05/26 01:10:25;;;;;;;8.20;4.00;;;20.20;61.30;;;;;;6238812;28;20029;-70
2023/05/26 01:13:42;;;;;;;6.90;3.72;;;20.20;61.50;;;;;;6234035;28;20018;-71
2023/05/26 01:17:18;;;;;;;7.13;3.78;;;20.10;61.70;;;;;;6215645;28;20041;-71
2023/05/26 01:20:45;;;;;;;;;;;20.10;62.00;;;;;;6163700;28;20070;-71
2023/05/26 01:24:11;;;;;;;6.55;3.63;;;20.10;62.10;;;;;;6161655;28;20286;-71
2023/05/26 01:27:32;;;;;;;7.68;3.55;;;20.00;62.00;;;;;;6167622;28;20090;-71
2023/05/26 01:30:45;;;;;;;4.63;3.17;;;20.00;62.10;;;;;;6168100;28;20058;-71
2023/05/26 01:33:54;;;;;;;8.07;3.42;;;20.00;62.30;;;;;;6167448;28;20090;-70
2023/05/26 01:37:01;;;;;;;7.43;4.00;;;20.00;62.30;;;;;;6151494;28;20063;-71
2023/05/26 01:40:15;;;;;;;6.93;4.18;;;19.80;62.40;;;;;;6145127;29;20116;-72
2023/05/26 01:43:48;;;;;;;9.60;3.85;;;19.90;62.80;;;;;;6146907;28;20039;-70
2023/05/26 01:47:00;;;;;;;5.95;3.72;;;19.80;63.00;;;;;;6168160;28;20105;-71
2023/05/26 01:50:11;;;;;;;;;;;19.80;63.20;;;;;;6168464;28;20523;-70
2023/05/26 01:53:24;;;;;;;12.77;3.67;;;19.70;63.40;;;;;;6186177;28;19918;-70
2023/05/26 01:56:34;;;;;;;6.70;3.40;;;19.70;63.50;;;;;;6190317;28;20037;-71
2023/05/26 01:59:41;;;;;;;7.32;3.65;;;19.60;63.60;;;;;;6242906;28;20108;-71
2023/05/26 02:02:47;;;;;;;;;;;19.60;63.70;;;;;;6244836;28;20026;-71
2023/05/26 02:05:52;;;;;;;8.52;3.63;;;19.60;63.70;;;;;;6233547;28;19959;-72
2023/05/26 02:09:00;;;;;;;10.32;3.47;;;19.60;63.40;;;;;;6219430;28;20112;-72
2023/05/26 02:12:10;;;;;;;5.78;3.22;;;19.60;63.50;;;;;;6219543;28;20080;-71
2023/05/26 02:15:23;;;;;;;6.82;3.72;;;19.60;63.50;;;;;;6220946;28;20049;-72
2023/05/26 02:18:26;;;;;;;6.85;3.63;;;19.50;63.60;;;;;;6224900;28;20033;-70
2023/05/26 02:21:37;;;;;;;6.05;3.08;;;19.50;63.80;;;;;;6225375;28;20083;-71
2023/05/26 02:24:46;;;;;;;7.60;3.78;;;19.40;63.90;;;;;;6243127;28;20025;-70
2023/05/26 02:27:54;;;;;;;11.18;3.78;;;19.40;64.00;;;;;;6241437;28;20214;-72
2023/05/26 02:31:03;;;;;;;6.75;3.78;;;19.40;64.10;;;;;;6243211;28;20037;-71
2023/05/26 02:34:21;;;;;;;9.43;3.72;;;19.30;64.20;;;;;;6242865;28;20037;-71
2023/05/26 02:37:27;;;;;;;8.57;4.18;;;19.30;64.30;;;;;;6246915;28;20033;-71
2023/05/26 02:40:33;;;;;;;6.38;3.30;;;19.20;64.50;;;;;;6240974;28;20021;-70
2023/05/26 02:43:40;;;;;;;6.55;3.80;;;19.20;64.70;;;;;;6243091;28;20057;-70
2023/05/26 02:46:44;;;;;;;6.78;3.25;;;19.20;64.70;;;;;;6225228;28;20119;-71
2023/05/26 02:49:52;;;;;;;9.88;3.63;;;19.20;64.80;;;;;;6242327;28;20489;-71
2023/05/26 02:53:02;;;;;;;7.07;3.70;;;19.20;64.90;;;;;;6242239;28;20029;-71
2023/05/26 02:56:14;;;;;;;6.63;3.92;;;19.20;64.90;;;;;;6234514;28;20037;-70
2023/05/26 02:59:28;;;;;;;7.35;4.28;;;19.20;64.90;;;;;;6201749;28;20152;-70
2023/05/26 03:02:42;;;;;;;5.93;3.60;;;19.20;64.80;;;;;;6199283;28;20041;-71
2023/05/26 03:05:48;;;;;;;9.05;4.22;;;19.20;64.70;;;;;;6217492;28;20033;-70
2023/05/26 03:09:01;;;;;;;8.35;5.18;;;19.20;64.60;;;;;;6198644;28;20044;-71
2023/05/26 03:12:12;;;;;;;10.73;3.85;;;19.20;64.50;;;;;;6222774;28;20041;-70
2023/05/26 03:15:49;;;;;;;9.05;4.43;;;19.20;64.40;;;;;;6242077;28;20060;-71
2023/05/26 03:19:01;;;;;;;11.02;4.25;;;19.20;64.30;;;;;;6241577;28;20033;-70
2023/05/26 03:22:07;;;;;;;7.38;4.50;;;19.10;64.20;;;;;;6223956;28;20029;-71
2023/05/26 03:25:16;;;;;;;11.60;3.53;;;19.10;64.40;;;;;;6233730;28;20101;-72
2023/05/26 03:28:30;;;;;;;14.13;3.90;;;19.10;64.50;;;;;;6241319;28;20022;-71
2023/05/26 03:31:41;;;;;;;7.60;4.22;;;19.10;64.50;;;;;;6239466;28;20057;-71
2023/05/26 03:34:47;;;;;;;9.25;4.15;;;19.10;64.60;;;;;;6241316;28;20372;-71
2023/05/26 03:38:00;;;;;;;6.72;4.32;;;19.10;64.60;;;;;;6206978;28;20025;-71
2023/05/26 03:41:09;;;;;;;8.40;4.30;;;19.10;64.70;;;;;;6241396;28;20086;-70
2023/05/26 03:44:29;;;;;;;9.07;4.43;;;19.00;65.50;;;;;;6217567;28;20030;-73
2023/05/26 03:47:38;;;;;;;4.78;3.72;;;19.00;64.70;;;;;;6215962;28;20100;-70
2023/05/26 03:50:46;;;;;;;8.25;4.70;;;19.00;64.80;;;;;;6198415;28;20084;-71
2023/05/26 03:53:58;;;;;;;8.70;4.45;;;18.90;64.90;;;;;;6212765;28;20037;-70
2023/05/26 03:57:07;;;;;;;11.95;4.60;;;18.90;64.90;;;;;;6240893;28;20075;-70
2023/05/26 04:00:16;;;;;;;7.43;4.57;;;19.00;65.10;;;;;;6241163;28;20037;-71
2023/05/26 04:03:21;;;;;;;8.30;4.63;;;19.00;65.00;;;;;;6239216;28;20041;-71
2023/05/26 04:06:30;;;;;;;7.00;4.22;;;19.00;65.00;;;;;;6222890;28;20033;-71
2023/05/26 04:09:37;;;;;;;4.35;3.33;;;19.00;64.90;;;;;;6240653;28;20142;-71
2023/05/26 04:12:42;;;;;;;8.73;4.45;;;19.00;64.80;;;;;;6240609;28;20030;-72
2023/05/26 04:15:52;;;;;;;11.38;4.40;;;19.00;64.80;;;;;;6224849;28;20083;-70
2023/05/26 04:19:04;;;;;;;9.88;4.07;;;19.00;64.80;;;;;;6197886;28;20109;-71
2023/05/26 04:22:15;;;;;;;9.10;4.60;;;19.00;64.70;;;;;;6198061;28;20037;-71
2023/05/26 04:25:25;;;;;;;8.23;4.50;;;19.00;64.60;;;;;;6198984;28;20473;-71
2023/05/26 04:28:56;;;;;;;9.98;4.85;;;19.00;64.60;;;;;;6139360;29;20123;-70
2023/05/26 04:32:16;;;;;;;9.63;4.75;;;19.10;64.50;;;;;;6142174;28;20053;-70
2023/05/26 04:35:36;;;;;;;9.52;4.78;;;19.10;64.50;;;;;;6161614;28;20035;-70
2023/05/26 04:38:45;;;;;;;7.32;4.53;;;19.10;64.40;;;;;;6151222;28;20031;-71
2023/05/26 04:41:52;;;;;;;7.75;3.92;;;19.10;64.30;;;;;;6165618;28;20141;-71
2023/05/26 04:45:05;;;;;;;6.70;4.10;;;19.10;64.30;;;;;;6164009;28;20050;-70
2023/05/26 04:48:16;;;;;;;8.52;4.35;;;19.10;64.30;;;;;;6163030;28;20034;-70
2023/05/26 04:51:24;;;;;;;8.30;3.90;;;19.10;64.30;;;;;;6147379;28;20038;-71
2023/05/26 04:54:31;;;;;;;13.60;4.43;;;19.10;64.20;;;;;;6147505;28;20125;-71
2023/05/26 04:57:45;;;;;;;6.93;4.30;;;19.10;64.20;;;;;;6175887;28;20034;-70
2023/05/26 05:00:52;;;;;;;8.95;3.97;;;19.10;64.20;;;;;;6162498;28;20042;-71
2023/05/26 05:04:16;;;;;;;10.10;4.68;;;19.10;64.20;;;;;;6147416;28;20114;-70
2023/05/26 05:07:34;;;;;;;11.73;4.30;;;19.10;64.10;;;;;;6238945;28;20169;-71
2023/05/26 05:10:42;;;;;;;9.82;4.20;;;19.10;64.20;;;;;;6221492;28;20116;-71
2023/05/26 05:13:48;;;;;;;14.13;4.63;;;19.10;64.20;;;;;;6221675;28;20074;-70
2023/05/26 05:16:53;;;;;;;15.57;5.15;;;19.10;64.20;;;;;;6226091;28;20025;-71
2023/05/26 05:19:58;;;;;;;10.20;4.57;;;19.10;64.20;;;;;;6225744;28;20060;-71
2023/05/26 05:23:04;;;;;;;7.82;4.03;;;19.10;64.20;;;;;;6225089;28;20041;-70
2023/05/26 05:26:08;;;;;;;8.10;4.50;;;19.10;64.20;;;;;;6223046;28;20026;-71
2023/05/26 05:29:17;;;;;;;11.52;4.30;;;19.10;64.00;;;;;;6229858;28;20034;-70
2023/05/26 05:32:24;;;;;;;14.68;4.97;;;19.20;64.00;;;;;;6226590;28;20076;-71
2023/05/26 05:35:28;;;;;;;7.80;4.60;;;19.20;63.90;;;;;;6213723;28;20112;-71
2023/05/26 05:38:36;;;;;;;9.27;5.00;;;19.20;63.80;;;;;;6220178;28;20026;-69
2023/05/26 05:41:39;;;;;;;8.57;5.03;;;19.30;63.80;;;;;;6218512;28;20129;-73
2023/05/26 05:44:42;;;;;;;9.98;4.78;;;19.30;63.70;;;;;;6219967;28;20033;-71
2023/05/26 05:47:43;;;;;;;8.13;4.65;;;19.40;63.80;;;;;;6200344;28;20803;-73
2023/05/26 05:50:45;;;;;;;10.02;4.45;;;19.40;63.70;;;;;;6209306;28;20068;-74
2023/05/26 05:53:49;;;;;;;9.27;5.20;;;19.50;63.70;;;;;;6208541;28;20026;-73
2023/05/26 05:56:55;;;;;;;10.13;5.03;;;19.40;63.60;;;;;;6220785;28;20100;-74
2023/05/26 06:00:07;;;;;;;7.80;4.90;;;19.50;63.70;;;;;;6215290;28;20022;-74
2023/05/26 06:03:21;;;;;;;11.18;5.65;;;19.60;63.50;;;;;;6207997;28;20203;-72
2023/05/26 06:06:31;;;;;;;7.30;4.65;;;19.60;63.40;;;;;;6202068;28;20034;-75
2023/05/26 06:09:39;;;;;;;10.60;5.13;;;19.70;63.30;;;;;;6220012;28;20094;-73
2023/05/26 06:12:42;;;;;;;8.13;4.43;;;19.80;63.20;;;;;;6211883;28;20030;-73
2023/05/26 06:15:46;;;;;;;12.95;4.85;;;19.90;63.10;;;;;;6232727;28;20021;-73
2023/05/26 06:18:49;;;;;;;8.43;4.72;;;20.00;62.90;;;;;;6214391;28;20117;-74
2023/05/26 06:21:53;;;;;;;9.65;4.50;;;20.00;62.60;;;;;;6218854;28;20041;-74
2023/05/26 06:25:02;;;;;;;9.75;5.18;;;20.10;62.40;;;;;;6229557;28;20040;-73
2023/05/26 06:28:12;;;;;;;12.23;4.68;;;20.20;62.40;;;;;;6240293;28;20029;-73
2023/05/26 06:31:21;;;;;;;14.98;5.90;;;20.30;62.10;;;;;;6242455;28;20044;-72
2023/05/26 06:34:37;;;;;;;16.63;4.88;;;20.40;61.90;;;;;;6226040;28;20022;-74
2023/05/26 06:37:46;;;;;;;13.95;5.18;;;20.50;61.60;;;;;;6242693;28;20110;-74
2023/05/26 06:40:50;;;;;;;18.40;5.60;;;20.60;61.30;;;;;;6241394;28;20082;-75
2023/05/26 06:44:00;;;;;;;11.98;5.18;;;20.80;61.20;;;;;;6242551;28;20061;-74
2023/05/26 06:47:10;;;;;;;17.52;6.22;;;20.90;60.60;;;;;;6242815;28;20057;-74
2023/05/26 06:50:25;;;;;;;13.23;5.22;;;21.00;60.00;;;;;;6242635;28;20163;-73
2023/05/26 06:53:41;;;;;;;11.88;5.35;;;21.10;59.70;;;;;;6242264;28;20118;-73
2023/05/26 06:56:53;;;;;;;12.35;4.55;;;21.20;59.40;;;;;;6228847;28;20057;-73
2023/05/26 07:00:04;;;;;;;10.45;4.43;;;21.40;59.50;;;;;;6209009;28;20064;-73
2023/05/26 07:03:09;;;;;;;7.35;4.35;;;21.60;58.50;;;;;;6224585;28;20030;-73
2023/05/26 07:06:22;;;;;;;7.65;4.47;;;22.00;57.70;;;;;;6243189;28;20180;-73
2023/05/26 07:09:31;;;;;;;8.68;4.45;;;22.40;56.50;;;;;;6242723;28;20045;-74
2023/05/26 07:12:44;;;;;;;14.63;5.18;;;22.50;55.80;;;;;;6226610;28;20029;-74
2023/05/26 07:16:15;;;;;;;12.95;4.57;;;22.50;55.70;;;;;;6228234;28;20136;-73
2023/05/26 07:19:25;;;;;;;9.43;4.95;;;22.50;55.80;;;;;;6242292;28;20111;-74
2023/05/26 07:22:34;;;;;;;12.07;5.63;;;22.60;55.90;;;;;;6238777;28;20120;-74
2023/05/26 07:25:56;;;;;;;8.77;4.80;;;22.60;55.70;;;;;;6241719;28;20083;-75
2023/05/26 07:29:07;;;;;;;9.52;4.75;;;22.70;55.20;;;;;;6224257;28;20029;-73
2023/05/26 07:32:16;;;;;;;7.93;4.68;;;22.80;55.30;;;;;;6238136;28;20038;-74
2023/05/26 07:35:25;;;;;;;7.00;3.90;;;22.80;55.20;;;;;;6217615;28;20386;-74
2023/05/26 07:38:31;;;;;;;8.90;4.10;;;23.10;54.90;;;;;;6216555;28;20026;-73
2023/05/26 07:41:38;;;;;;;7.68;4.80;;;22.90;54.10;;;;;;6216980;28;20468;-74
2023/05/26 07:44:49;;;;;;;20.42;5.05;;;22.90;53.70;;;;;;6216843;28;20022;-73
2023/05/26 07:47:59;;;;;;;14.65;4.57;;;23.00;53.80;;;;;;6216742;28;20128;-74
2023/05/26 07:51:06;;;;;;;13.37;5.97;;;23.10;53.80;;;;;;6217432;28;20037;-74
2023/05/26 07:54:16;;;;;;;10.77;6.28;;;23.20;53.70;;;;;;6223399;28;20034;-74
2023/05/26 07:57:25;;;;;;;12.88;5.40;;;23.30;53.30;;;;;;6224058;28;20025;-73
2023/05/26 08:00:40;;;;;;;8.05;5.15;;;23.50;53.00;;;;;;6242932;28;20083;-74
2023/05/26 08:03:49;;;;;;;9.88;4.70;;;23.70;52.60;;;;;;6243991;28;20057;-74
2023/05/26 08:07:00;;;;;;;6.93;4.25;;;23.80;52.00;;;;;;6224317;28;20080;-73
2023/05/26 08:10:10;;;;;;;11.57;5.18;;;23.80;51.70;;;;;;6223407;28;20078;-73
2023/05/26 08:13:19;;;;;;;8.48;4.55;;;23.90;51.40;;;;;;6240638;28;20213;-74
2023/05/26 08:16:25;;;;;;;9.82;5.82;;;24.00;51.40;;;;;;6240758;28;20124;-73
2023/05/26 08:19:33;;;;;;;15.40;5.88;;;24.00;51.20;;;;;;6198215;28;20026;-75
2023/05/26 08:22:42;;;;;;;11.73;5.20;;;24.10;50.90;;;;;;6198103;28;20065;-73
2023/05/26 08:25:48;;;;;;;11.88;6.32;;;24.30;50.80;;;;;;6216174;28;20087;-75
2023/05/26 08:28:58;;;;;;;9.45;5.55;;;24.40;50.60;;;;;;6215404;28;20093;-73
2023/05/26 08:32:06;;;;;;;10.90;5.50;;;24.50;50.30;;;;;;6216467;28;20068;-74
2023/05/26 08:35:15;;;;;;;11.57;4.63;;;24.70;50.10;;;;;;6240443;28;20136;-73
2023/05/26 08:38:21;;;;;;;8.18;4.55;;;24.90;49.80;;;;;;6222131;28;20261;-73
2023/05/26 08:41:37;;;;;;;7.70;3.63;;;25.00;49.50;;;;;;6239552;28;20046;-74
2023/05/26 08:44:49;;;;;;;13.20;3.88;;;25.10;49.00;;;;;;6239748;28;20033;-74
2023/05/26 08:48:02;;;;;;;8.45;3.47;;;25.20;48.40;;;;;;6222421;28;20038;-74
2023/05/26 08:51:11;;;;;;;7.45;3.67;;;25.20;48.10;;;;;;6239757;28;20132;-74
2023/05/26 08:54:21;;;;;;;13.70;4.05;;;25.40;48.20;;;;;;6240224;28;20076;-74
2023/05/26 08:57:30;;;;;;;10.50;4.03;;;25.40;48.00;;;;;;6203552;28;20064;-74
2023/05/26 09:00:41;;;;;;;9.25;4.10;;;25.50;47.80;;;;;;6197398;28;20195;-73
2023/05/26 09:03:49;;;;;;;8.05;4.22;;;25.50;47.50;;;;;;6197152;28;20086;-74
2023/05/26 09:06:57;;;;;;;10.52;3.80;;;25.50;47.40;;;;;;6215153;28;20038;-73
2023/05/26 09:10:31;;;;;;;11.05;4.63;;;25.50;47.40;;;;;;6198532;28;20040;-72
2023/05/26 09:13:42;;;;;;;6.65;3.90;;;25.60;47.00;;;;;;6215424;28;20037;-74
2023/05/26 09:16:48;;;;;;;8.23;4.30;;;25.60;46.90;;;;;;6239614;28;20133;-73
2023/05/26 09:20:00;;;;;;;8.63;3.83;;;25.70;46.90;;;;;;6239641;28;20049;-73
2023/05/26 09:23:08;;;;;;;8.80;3.70;;;25.70;46.70;;;;;;6240226;28;20114;-73
2023/05/26 09:26:18;;;;;;;12.30;6.03;;;25.80;46.30;;;;;;6221992;28;20041;-74
2023/05/26 09:29:23;;;;;;;6.15;3.47;;;25.80;46.10;;;;;;6240061;28;20118;-74
2023/05/26 09:32:32;;;;;;;7.72;3.70;;;25.80;46.10;;;;;;6234734;28;20160;-74
2023/05/26 09:35:42;;;;;;;8.27;3.85;;;25.90;46.50;;;;;;6215427;28;20026;-72
2023/05/26 09:38:47;;;;;;;6.38;3.53;;;26.00;45.80;;;;;;6214982;28;20037;-74
2023/05/26 09:41:51;;;;;;;5.88;3.47;;;26.10;45.60;;;;;;6215411;28;20476;-73
2023/05/26 09:45:00;;;;;;;6.22;3.53;;;26.20;45.00;;;;;;6215364;28;20037;-73
2023/05/26 09:48:05;;;;;;;6.40;3.50;;;26.20;44.80;;;;;;6221887;28;20025;-75
2023/05/26 09:51:13;;;;;;;8.50;3.92;;;26.20;44.80;;;;;;6243035;28;20111;-73
2023/05/26 09:54:21;;;;;;;9.95;3.88;;;26.20;44.60;;;;;;6202830;28;20408;-74
2023/05/26 09:57:30;;;;;;;8.60;3.30;;;26.20;44.50;;;;;;6238015;28;20038;-72
2023/05/26 10:00:42;;;;;;;6.80;3.50;;;26.20;44.50;;;;;;6244434;28;20037;-74
2023/05/26 10:03:49;;;;;;;8.68;3.60;;;26.30;44.50;;;;;;6244124;28;20049;-74
2023/05/26 10:06:57;;;;;;;9.63;3.45;;;26.30;44.40;;;;;;6244130;28;20037;-74
2023/05/26 10:10:02;;;;;;;;;;;26.40;44.20;;;;;;6227145;28;20113;-75
2023/05/26 10:13:13;;;;;;;8.98;3.58;;;26.50;44.00;;;;;;6241460;28;19928;-73
2023/05/26 10:16:23;;;;;;;7.32;3.05;;;26.50;43.70;;;;;;6244012;28;20043;-74
2023/05/26 10:19:26;;;;;;;5.72;3.22;;;26.60;43.40;;;;;;6225684;28;20030;-74
2023/05/26 10:22:52;;;;;;;5.93;3.33;;;26.60;43.10;;;;;;6243705;28;20025;-73
2023/05/26 10:26:05;;;;;;;7.80;3.72;;;26.70;42.60;;;;;;6234009;28;20052;-73
2023/05/26 10:29:20;;;;;;;5.60;3.65;;;26.80;42.20;;;;;;6243278;28;20036;-75
2023/05/26 10:32:57;;;;;;;6.28;3.22;;;27.00;41.80;;;;;;6225681;28;20140;-74
2023/05/26 10:36:08;;;;;;;11.00;3.30;;;27.10;41.70;;;;;;6243166;28;20064;-73
2023/05/26 10:39:19;;;;;;;8.20;3.42;;;27.20;41.60;;;;;;6243173;28;20089;-74
2023/05/26 10:42:26;;;;;;;5.25;3.40;;;27.30;41.40;;;;;;6243414;28;20426;-74
2023/05/26 10:45:42;;;;;;;5.32;3.20;;;27.40;41.40;;;;;;6242137;28;20161;-74
2023/05/26 10:49:04;;;;;;;7.82;2.90;;;27.40;41.20;;;;;;6242934;28;20045;-74
2023/05/26 10:52:18;;;;;;;4.47;2.63;;;27.50;41.00;;;;;;6215905;28;20163;-73
2023/05/26 10:56:04;;;;;;;6.80;3.28;;;27.50;41.00;;;;;;6220457;28;20116;-74
2023/05/26 10:59:36;;;;;;;4.20;2.70;;;27.70;40.90;;;;;;6190203;28;20095;-75
2023/05/26 11:02:48;;;;;;;6.93;3.35;;;28.40;39.70;;;;;;6191057;28;20077;-74
2023/05/26 11:05:56;;;;;;;7.82;3.35;;;29.30;38.60;;;;;;6192578;28;20194;-74
2023/05/26 11:09:09;;;;;;;4.18;2.95;;;30.30;37.30;;;;;;6191795;28;20164;-74
2023/05/26 11:12:21;;;;;;;7.63;3.30;;;31.10;36.00;;;;;;6191012;28;20165;-74
2023/05/26 11:15:31;;;;;;;4.78;2.95;;;31.90;35.10;;;;;;6174368;28;20565;-75
2023/05/26 11:18:41;;;;;;;4.63;2.83;;;32.70;34.10;;;;;;6189744;28;20279;-74
2023/05/26 11:21:50;;;;;;;6.70;3.10;;;33.20;33.40;;;;;;6173671;28;20038;-73
2023/05/26 11:24:58;;;;;;;6.15;3.38;;;33.40;32.70;;;;;;6190271;28;20038;-75
2023/05/26 11:28:05;;;;;;;7.13;3.80;;;33.70;32.70;;;;;;6189759;28;20050;-73
2023/05/26 11:31:16;;;;;;;3.95;3.15;;;33.90;32.20;;;;;;6189830;28;20046;-75
2023/05/26 11:34:25;;;;;;;8.70;3.13;;;34.10;32.00;;;;;;6204190;28;20037;-74
2023/05/26 11:37:31;;;;;;;8.73;3.37;;;34.20;32.60;;;;;;6223879;28;20037;-75
2023/05/26 11:40:37;;;;;;;6.10;3.30;;;34.40;31.50;;;;;;6241711;28;20160;-74
2023/05/26 11:43:49;;;;;;;5.03;3.25;;;34.30;31.50;;;;;;6241752;28;20089;-75
2023/05/26 11:46:59;;;;;;;6.00;2.88;;;34.40;31.50;;;;;;6241554;28;20037;-75
2023/05/26 11:50:14;;;;;;;4.97;3.05;;;34.70;31.20;;;;;;6241570;28;20037;-75
2023/05/26 11:53:24;;;;;;;5.20;3.05;;;35.10;30.90;;;;;;6221722;28;20037;-74
2023/05/26 11:56:37;;;;;;;6.20;3.63;;;35.60;30.60;;;;;;6226867;28;20022;-75
2023/05/26 11:59:46;;;;;;;5.20;3.45;;;35.90;30.10;;;;;;6241199;28;20026;-75
2023/05/26 12:02:59;;;;;;;5.35;3.15;;;36.10;29.60;;;;;;6240802;28;20393;-74
2023/05/26 12:06:23;;;;;;;5.22;2.97;;;36.10;29.50;;;;;;6216872;28;20037;-74
2023/05/26 12:09:29;;;;;;;4.15;3.05;;;36.20;29.40;;;;;;6215884;28;20044;-74
2023/05/26 12:12:54;;;;;;;5.43;3.08;;;36.40;29.30;;;;;;6216601;28;20027;-74
2023/05/26 12:16:04;;;;;;;4.97;2.95;;;36.50;28.90;;;;;;6198397;28;20045;-74
2023/05/26 12:19:18;;;;;;;6.10;2.75;;;36.60;28.90;;;;;;6197940;28;20477;-75
2023/05/26 12:22:31;;;;;;;6.00;3.00;;;36.80;28.80;;;;;;6216120;28;20107;-75
2023/05/26 12:25:36;;;;;;;6.85;3.20;;;36.90;28.40;;;;;;6216493;28;20029;-74
2023/05/26 12:28:46;;;;;;;8.63;3.35;;;37.00;28.20;;;;;;6216288;28;20033;-74
2023/05/26 12:32:00;;;;;;;4.10;3.35;;;37.10;28.00;;;;;;6216629;28;20033;-74
2023/05/26 12:35:09;;;;;;;6.80;3.05;;;37.30;28.00;;;;;;6198439;28;20100;-74
2023/05/26 12:38:22;;;;;;;5.65;2.90;;;37.40;27.70;;;;;;6231132;28;20031;-74
2023/05/26 12:41:29;;;;;;;8.48;3.20;;;37.60;27.50;;;;;;6223371;28;20147;-74
2023/05/26 12:44:37;;;;;;;5.03;3.35;;;37.80;27.20;;;;;;6240782;28;20412;-74
2023/05/26 12:47:50;;;;;;;6.65;2.95;;;38.00;26.80;;;;;;6240753;28;20026;-73
2023/05/26 12:51:01;;;;;;;9.65;3.40;;;38.20;26.60;;;;;;6240376;28;20075;-73
2023/05/26 12:54:09;;;;;;;10.75;3.00;;;38.40;26.40;;;;;;6240744;28;20040;-73
2023/05/26 12:57:19;;;;;;;9.57;3.40;;;38.70;26.00;;;;;;6206135;28;20120;-75
2023/05/26 13:00:25;;;;;;;7.55;3.15;;;39.10;25.60;;;;;;6239707;28;20557;-74
2023/05/26 13:03:31;;;;;;;8.20;3.28;;;39.10;25.30;;;;;;6239880;28;20025;-74
2023/05/26 13:06:38;;;;;;;6.38;2.95;;;39.30;25.10;;;;;;6239980;28;20045;-74
2023/05/26 13:09:43;;;;;;;;;;;39.50;24.90;;;;;;6239927;28;20029;-72
2023/05/26 13:12:54;;;;;;;6.75;3.03;;;39.90;24.60;;;;;;6239566;28;19953;-74
2023/05/26 13:16:04;;;;;;;4.35;2.58;;;40.30;24.20;;;;;;6221475;28;20100;-74
2023/05/26 13:19:10;;;;;;;4.72;2.80;;;40.80;23.80;;;;;;6222309;28;20026;-74
2023/05/26 13:22:24;;;;;;;6.03;3.00;;;41.20;23.80;;;;;;6242659;28;20025;-73
2023/05/26 13:25:29;;;;;;;4.40;2.78;;;41.60;22.90;;;;;;6244446;28;20105;-75
2023/05/26 13:28:39;;;;;;;10.02;2.90;;;41.80;22.70;;;;;;6244184;28;20040;-74
2023/05/26 13:31:45;;;;;;;4.28;3.03;;;42.10;22.50;;;;;;6244838;28;20044;-74
2023/05/26 13:34:50;;;;;;;4.95;2.80;;;42.50;22.10;;;;;;6244073;28;20108;-73
2023/05/26 13:38:00;;;;;;;7.22;3.30;;;42.80;21.60;;;;;;6226810;28;20204;-74
2023/05/26 13:41:12;;;;;;;4.85;2.83;;;42.80;21.50;;;;;;6244426;28;20107;-73
2023/05/26 13:44:21;;;;;;;4.13;2.83;;;42.80;21.50;;;;;;6244457;28;20052;-73
2023/05/26 13:47:28;;;;;;;4.90;2.95;;;42.90;21.50;;;;;;6209554;28;20025;-74
2023/05/26 13:50:33;;;;;;;4.35;2.58;;;42.90;21.40;;;;;;6244193;28;20037;-73
2023/05/26 13:53:42;;;;;;;5.10;2.92;;;43.10;21.30;;;;;;6204337;28;20110;-73
2023/05/26 13:56:49;;;;;;;4.70;2.90;;;43.80;21.00;;;;;;6215996;28;20112;-72
2023/05/26 13:59:59;;;;;;;4.57;2.65;;;44.20;20.50;;;;;;6225583;28;20794;-74
2023/05/26 14:03:17;;;;;;;4.55;2.70;;;44.30;20.40;;;;;;6243988;28;20080;-75
2023/05/26 14:06:34;;;;;;;4.75;2.80;;;44.70;20.30;;;;;;6243514;28;20080;-74
2023/05/26 14:09:43;;;;;;;4.53;2.63;;;45.10;19.80;;;;;;6243373;28;20441;-74
2023/05/26 14:12:48;;;;;;;5.55;3.15;;;45.00;19.70;;;;;;6243335;28;20079;-73
2023/05/26 14:15:59;;;;;;;6.85;2.90;;;45.10;19.80;;;;;;6243768;28;20056;-74
2023/05/26 14:19:09;;;;;;;5.90;2.97;;;45.30;19.50;;;;;;6243834;28;20025;-75
2023/05/26 14:22:22;;;;;;;5.50;3.15;;;45.30;19.20;;;;;;6209440;28;20121;-74
2023/05/26 14:25:29;;;;;;;4.28;2.50;;;45.10;19.40;;;;;;6243018;28;20155;-74
2023/05/26 14:28:36;;;;;;;7.70;2.90;;;44.90;19.50;;;;;;6243121;28;20037;-73
2023/05/26 14:31:45;;;;;;;3.45;2.65;;;44.70;19.50;;;;;;6242444;28;20068;-73
2023/05/26 14:34:50;;;;;;;6.93;3.08;;;44.20;19.70;;;;;;6242587;28;20503;-73
2023/05/26 14:38:01;;;;;;;4.38;3.08;;;43.70;20.10;;;;;;6243208;28;20034;-74
2023/05/26 14:41:11;;;;;;;4.63;2.70;;;42.90;20.50;;;;;;6244462;28;20040;-74
2023/05/26 14:44:18;;;;;;;7.47;2.70;;;42.60;21.40;;;;;;6247315;28;20108;-74
2023/05/26 14:47:26;;;;;;;5.05;2.65;;;42.60;21.00;;;;;;6245591;28;20093;-73
2023/05/26 14:50:35;;;;;;;4.95;2.53;;;42.70;20.90;;;;;;6243291;28;20040;-74
2023/05/26 14:53:42;;;;;;;3.25;2.65;;;43.00;20.80;;;;;;6242422;28;20497;-74
2023/05/26 14:56:49;;;;;;;4.25;3.00;;;43.40;20.50;;;;;;6242730;28;20079;-73
2023/05/26 14:59:55;;;;;;;3.15;2.70;;;43.40;20.30;;;;;;6242381;28;20034;-73
2023/05/26 15:03:08;;;;;;;9.95;2.95;;;43.10;20.50;;;;;;6242442;28;20408;-73
2023/05/26 15:06:15;;;;;;;10.52;2.70;;;42.20;21.00;;;;;;6224354;28;20200;-73
2023/05/26 15:09:21;;;;;;;6.28;2.65;;;40.80;21.80;;;;;;6242201;28;20033;-74
2023/05/26 15:12:31;;;;;;;4.95;3.15;;;39.60;22.90;;;;;;6242803;28;20034;-75
2023/05/26 15:15:42;;;;;;;5.20;2.85;;;38.70;23.80;;;;;;6242470;28;20083;-74
2023/05/26 15:18:50;;;;;;;6.53;3.03;;;38.70;23.90;;;;;;6241955;28;20030;-73
2023/05/26 15:21:57;;;;;;;5.23;2.73;;;39.20;23.30;;;;;;6242588;28;20056;-73
2023/05/26 15:25:10;;;;;;;6.00;2.88;;;39.70;23.10;;;;;;6224738;28;20031;-73
2023/05/26 15:28:26;;;;;;;6.60;2.95;;;40.00;22.80;;;;;;6217536;28;20034;-74
2023/05/26 15:31:35;;;;;;;6.55;2.80;;;40.30;22.40;;;;;;6199629;28;20116;-73
2023/05/26 15:34:43;;;;;;;5.78;2.63;;;40.40;22.10;;;;;;6240593;28;20166;-74
2023/05/26 15:37:50;;;;;;;4.07;3.10;;;40.60;22.10;;;;;;6223962;28;20034;-74
2023/05/26 15:40:57;;;;;;;4.55;2.80;;;40.90;22.00;;;;;;6224257;28;20095;-73
2023/05/26 15:44:02;;;;;;;4.50;2.70;;;41.20;21.80;;;;;;6206634;28;20509;-74
2023/05/26 15:47:10;;;;;;;5.00;2.50;;;41.10;21.70;;;;;;6224219;28;20042;-74
2023/05/26 15:50:19;;;;;;;4.45;2.45;;;40.90;21.70;;;;;;6242346;28;20044;-73
2023/05/26 15:53:24;;;;;;;3.50;2.22;;;41.00;21.60;;;;;;6224588;28;20412;-75
2023/05/26 15:56:31;;;;;;;4.70;2.75;;;40.90;21.60;;;;;;6241887;28;20021;-74
2023/05/26 15:59:37;;;;;;;9.27;2.80;;;41.00;21.70;;;;;;6224951;28;20096;-73
2023/05/26 16:02:43;;;;;;;5.85;2.65;;;41.20;21.50;;;;;;6241743;28;20022;-75
2023/05/26 16:05:52;;;;;;;4.03;2.45;;;41.10;21.40;;;;;;6224293;28;20496;-74
2023/05/26 16:08:59;;;;;;;5.40;2.60;;;41.00;21.40;;;;;;6241809;28;20021;-74
2023/05/26 16:12:10;;;;;;;6.18;2.53;;;40.60;21.60;;;;;;6241970;28;20088;-75
2023/05/26 16:15:20;;;;;;;4.93;2.78;;;40.60;21.80;;;;;;6241989;28;20072;-73
2023/05/26 16:18:26;;;;;;;11.00;2.80;;;40.50;21.70;;;;;;6242876;28;20076;-73
2023/05/26 16:21:31;;;;;;;4.07;2.60;;;40.30;21.80;;;;;;6225201;28;20112;-74
2023/05/26 16:24:40;;;;;;;4.65;2.70;;;40.00;21.80;;;;;;6241458;28;20483;-74
2023/05/26 16:27:47;;;;;;;4.18;2.47;;;39.80;22.00;;;;;;6224934;28;20048;-73